QTR50Q LIRF-OTHH
Flight info
| Callsign | QTR50Q |
|---|---|
| Flight time | N/A |
| Altitude | 39000 |
| Route | SIPRO DCT IPKAM DCT AMSOR DCT EKTOL DCT DOGUS DCT ULFIG DCT LATAN DCT OSDES DCT TRL DCT GUDIS DCT KAVOS DCT EVORA DCT LAKTO L560 SERMA L550 KARIK B411 ELETA/N0485F410 B411 DEESA Y415 TAMRO N318 HAYYA |
| Aircraft | A359/H-SDE2E3GHIJ1J3J4J5LM1ORWXY/LB1D1 |
Departure
| Time | 2026-02-20 07:38 |
|---|---|
| Airport | Rome–Fiumicino Leonardo da Vinci International Airport (LIRF) |
Arrival
| Time | N/A |
|---|---|
| Airport | Hamad International Airport (OTHH) |
| Time | Latitude | Longitude | Altitude | Speed | Heading |
|---|---|---|---|---|---|
| 2026-02-20 07:28 | 41.79740 | 12.24306 | 22 ft | 3 kts | 229° |
| 2026-02-20 07:29 | 41.79753 | 12.24327 | 25 ft | 3 kts | 240° |
| 2026-02-20 07:29 | 41.79761 | 12.24351 | 23 ft | 3 kts | 265° |
| 2026-02-20 07:29 | 41.79760 | 12.24369 | 25 ft | 2 kts | 323° |
| 2026-02-20 07:29 | 41.79756 | 12.24373 | 25 ft | 4 kts | 340° |
| 2026-02-20 07:32 | 41.79757 | 12.24373 | 25 ft | 2 kts | 340° |
| 2026-02-20 07:32 | 41.79817 | 12.24333 | 22 ft | 17 kts | 319° |
| 2026-02-20 07:32 | 41.79921 | 12.24254 | 24 ft | 15 kts | 338° |
| 2026-02-20 07:32 | 41.80012 | 12.24228 | 23 ft | 13 kts | 22° |
| 2026-02-20 07:33 | 41.80059 | 12.24335 | 21 ft | 14 kts | 69° |
| 2026-02-20 07:33 | 41.80095 | 12.24465 | 20 ft | 16 kts | 70° |
| 2026-02-20 07:33 | 41.80134 | 12.24609 | 22 ft | 17 kts | 70° |
| 2026-02-20 07:33 | 41.80177 | 12.24762 | 23 ft | 18 kts | 70° |
| 2026-02-20 07:34 | 41.80207 | 12.24930 | 20 ft | 19 kts | 88° |
| 2026-02-20 07:34 | 41.80214 | 12.25108 | 24 ft | 19 kts | 75° |
| 2026-02-20 07:34 | 41.80263 | 12.25282 | 23 ft | 20 kts | 68° |
| 2026-02-20 07:34 | 41.80312 | 12.25457 | 23 ft | 20 kts | 69° |
| 2026-02-20 07:35 | 41.80362 | 12.25634 | 25 ft | 21 kts | 70° |
| 2026-02-20 07:35 | 41.80413 | 12.25822 | 24 ft | 22 kts | 70° |
| 2026-02-20 07:35 | 41.80467 | 12.26019 | 24 ft | 23 kts | 70° |
| 2026-02-20 07:35 | 41.80522 | 12.26216 | 24 ft | 23 kts | 70° |
| 2026-02-20 07:36 | 41.80578 | 12.26422 | 25 ft | 24 kts | 70° |
| 2026-02-20 07:36 | 41.80638 | 12.26638 | 24 ft | 25 kts | 69° |
| 2026-02-20 07:36 | 41.80691 | 12.26828 | 24 ft | 22 kts | 70° |
| 2026-02-20 07:36 | 41.80752 | 12.27018 | 24 ft | 20 kts | 44° |
| 2026-02-20 07:37 | 41.80872 | 12.27012 | 22 ft | 17 kts | 341° |
| 2026-02-20 07:37 | 41.80952 | 12.26927 | 20 ft | 15 kts | 274° |
| 2026-02-20 07:37 | 41.80921 | 12.26786 | 22 ft | 21 kts | 255° |
| 2026-02-20 07:37 | 41.80826 | 12.26377 | 27 ft | 76 kts | 249° |
| 2026-02-20 07:38 | 41.80546 | 12.25431 | 24 ft | 141 kts | 249° |
| 2026-02-20 07:38 | 41.80174 | 12.24002 | 364 ft | 169 kts | 253° |
| 2026-02-20 07:38 | 41.79834 | 12.22511 | 1156 ft | 165 kts | 256° |
| 2026-02-20 07:38 | 41.79878 | 12.20955 | 1620 ft | 176 kts | 288° |
| 2026-02-20 07:39 | 41.80432 | 12.19400 | 1855 ft | 195 kts | 301° |
| 2026-02-20 07:39 | 41.81160 | 12.17740 | 2018 ft | 218 kts | 302° |
| 2026-02-20 07:39 | 41.81728 | 12.15794 | 2422 ft | 232 kts | 279° |
| 2026-02-20 07:39 | 41.81431 | 12.13684 | 3057 ft | 239 kts | 243° |
| 2026-02-20 07:40 | 41.80199 | 12.12115 | 3522 ft | 257 kts | 208° |
| 2026-02-20 07:40 | 41.78401 | 12.11729 | 3942 ft | 271 kts | 174° |
| 2026-02-20 07:40 | 41.76543 | 12.12275 | 4569 ft | 276 kts | 166° |
| 2026-02-20 07:40 | 41.74685 | 12.12937 | 5260 ft | 277 kts | 165° |
| 2026-02-20 07:41 | 41.72809 | 12.13575 | 5910 ft | 280 kts | 165° |
| 2026-02-20 07:41 | 41.70990 | 12.14539 | 6445 ft | 285 kts | 147° |
| 2026-02-20 07:41 | 41.69403 | 12.16143 | 7049 ft | 287 kts | 138° |
| 2026-02-20 07:41 | 41.67887 | 12.17895 | 7649 ft | 290 kts | 137° |
| 2026-02-20 07:42 | 41.66354 | 12.19676 | 8288 ft | 293 kts | 137° |
| 2026-02-20 07:42 | 41.64796 | 12.21467 | 8911 ft | 297 kts | 138° |
| 2026-02-20 07:42 | 41.63218 | 12.23267 | 9537 ft | 300 kts | 138° |
| 2026-02-20 07:42 | 41.61616 | 12.25084 | 10132 ft | 303 kts | 139° |
| 2026-02-20 07:43 | 41.59970 | 12.26875 | 10734 ft | 307 kts | 141° |